^^

Metar de toute la France(point de départ, Chateauroux, classé dans l'ordre alphabétique actualisée toutes les 30 minutes)






LFBA - Agen/, France
Distance de la station: SSO 307km
Mise à jour: 17/09/2014 15:00
partiellement nuageux
partiellement nuageux
 Wind from E
Vent: E 19 km/h
Température: 30°C
Heat Index: 31°C
Point de Rosée: 17°C
Humidité: 46%
Baromètre: 1005 hPa
Nuages: partiellement nuageux
Visibilité: 10 km
2014/09/17 13:00 LFBA 171300Z AUTO 09010KT 050V130 9999 NSC 30/17 Q1005
LFLP - Annecy/, France
Distance de la station: ESE 352km
Mise à jour: 17/09/2014 15:00
partiellement nuageux
partiellement nuageux
 Wind from O
Vent: O 9 km/h
Température: 24°C
Point de Rosée: 16°C
Humidité: 61%
Baromètre: 1011 hPa
Nuages: partiellement nuageux
Visibilité: 10 km
2014/09/17 13:00 LFLP 171300Z AUTO 27005KT 230V310 9999 NSC 24/16 Q1011
 
LFOA - Avord/ , France
Distance de la station: ENE 76km
Mise à jour: 17/09/2014 15:00
partiellement nuageux
partiellement nuageux
 Wind from SSE
Vent: SSE 17 km/h
Température: 24°C
Point de Rosée: 15°C
Humidité: 57%
Baromètre: 1008 hPa
Nuages: partiellement nuageux
Visibilité: 10 km
2014/09/17 13:00 LFOA 171300Z AUTO 15009KT 9999 NSC 24/15 Q1008
LFSB - Bale/, France
Distance de la station: ENE 449km
Mise à jour: 17/09/2014 15:00
nuageux
nuageux
 Wind from ENE
Vent: ENE 6 km/h
Température: 24°C
Point de Rosée: 15°C
Humidité: 57%
Baromètre: 1011 hPa
Nuages: nuageux
Visibilité: 10 km
Nuages details: Quelques Nuages 945 m
Quelques Nuages 1006 m
nuageux 5791 m
2014/09/17 13:00 LFSB 171300Z 06003KT 340V130 9999 FEW031 FEW033TCU BKN190 24/15 Q1011 NOSIG
 
LFOB - Beauvais/, France
Distance de la station: N 296km
Mise à jour: 17/09/2014 15:00
partiellement nuageux
partiellement nuageux
 Wind from ESE
Vent: ESE 19 km/h
Température: 25°C
Point de Rosée: 15°C
Humidité: 54%
Baromètre: 1008 hPa
Nuages: partiellement nuageux
Visibilité: 10 km
2014/09/17 13:00 LFOB 171300Z AUTO 12010KT 9999 NSC 25/15 Q1008
LFBE - Bergerac/, France
Distance de la station: SSO 240km
Mise à jour: 17/09/2014 15:00
partiellement nuageux
partiellement nuageux
 Wind from SE
Vent: SE 11 km/h
Température: 30°C
Heat Index: 29°C
Point de Rosée: 15°C
Humidité: 40%
Baromètre: 1005 hPa
Nuages: partiellement nuageux
Visibilité: 10 km
2014/09/17 13:00 LFBE 171300Z AUTO 13006KT 080V180 9999 NSC 30/15 Q1005
 
LFMU - Beziers/, France
Distance de la station: SSE 411km
Mise à jour: 17/09/2014 15:00
Orage
Orage
 Wind from ESE
Vent: ESE 28 km/h
Température: 24°C
Point de Rosée: 20°C
Humidité: 78%
Baromètre: 1009 hPa
Nuages: Orage
Visibilité: 10 km
Nuages details: Quelques Nuages 853 m
nuageux 1128 m
nuageux 1311 m
2014/09/17 13:00 LFMU 171300Z AUTO 11015KT 080V140 9999 FEW028/// BKN037/// BKN043/// ///CB 24/20 Q1009
LFBZ - Biarritz/, France
Distance de la station: SO 449km
Mise à jour: 17/09/2014 15:00
Quelques Nuages
Quelques Nuages
 Wind from variable
Vent: variable 11 km/h
Température: 30°C
Heat Index: 30°C
Point de Rosée: 16°C
Humidité: 43%
Baromètre: 1004 hPa
Nuages: Quelques Nuages
Visibilité: 10 km
Nuages details: Quelques Nuages 1524 m
2014/09/17 13:00 LFBZ 171300Z VRB06KT 9999 FEW050 30/16 Q1004 NOSIG
 
LFBD - Bordeaux/, France
Distance de la station: SO 289km
Mise à jour: 17/09/2014 15:00
partiellement nuageux
partiellement nuageux
 Wind from S
Vent: S 15 km/h
Température: 31°C
Point de Rosée: 14°C
Humidité: 35%
Baromètre: 1004 hPa
Nuages: partiellement nuageux
Visibilité: 10 km
2014/09/17 13:00 LFBD 171300Z AUTO 17008KT 130V200 9999 NSC 31/14 Q1004
LFAQ - Bray/, France
Distance de la station: N 358km
Mise à jour: 17/09/2014 15:00
partiellement nuageux
partiellement nuageux
 Wind from E
Vent: E 20 km/h
Température: 26°C
Point de Rosée: 16°C
Humidité: 54%
Baromètre: 1009 hPa
Nuages: partiellement nuageux
Visibilité: 10 km
2014/09/17 13:00 LFAQ 171300Z AUTO 10011KT 9999 NSC 26/16 Q1009
 
LFRB - Brest/, France
Distance de la station: ONO 492km
Mise à jour: 17/09/2014 15:00
nuageux
nuageux
 Wind from SE
Vent: SE 20 km/h
Température: 25°C
Point de Rosée: 18°C
Humidité: 65%
Baromètre: 1003 hPa
Nuages: nuageux
Visibilité: 10 km
Nuages details: Quelques Nuages 914 m
partiellement nuageux 3048 m
nuageux 7010 m
2014/09/17 13:00 LFRB 171300Z 13011KT 090V160 9999 FEW030 SCT100 BKN230 25/18 Q1003 NOSIG
LFRK - Caen/, France
Distance de la station: NNO 306km
Mise à jour: 17/09/2014 15:00
partiellement nuageux
partiellement nuageux
 Wind from E
Vent: E 15 km/h
Température: 26°C
Point de Rosée: 16°C
Humidité: 54%
Baromètre: 1006 hPa
Nuages: partiellement nuageux
Visibilité: 10 km
2014/09/17 13:00 LFRK 171300Z AUTO 10008KT 070V130 9999 NSC 26/16 Q1006
 
LFMK - Carcassonne/, France
Distance de la station: S 403km
Mise à jour: 17/09/2014 15:00
nuageux
nuageux
 Wind from E
Vent: E 33 km/h
Température: 24°C
Point de Rosée: 18°C
Humidité: 69%
Baromètre: 1007 hPa
Nuages: nuageux
Visibilité: 10 km
Nuages details: nuageux 823 m
nuageux 1006 m
2014/09/17 13:00 LFMK 171300Z AUTO 08018KT 9999 BKN027 BKN033 24/18 Q1007
LFMV - Caumont/, France
Distance de la station: SE 410km
Mise à jour: 17/09/2014 15:00
Orage
Orage
 Wind from SE
Vent: SE 28 km/h
Température: 27°C
Heat Index: 28°C
Point de Rosée: 16°C
Humidité: 51%
Baromètre: 1010 hPa
Nuages: Orage
Visibilité: 10 km
Nuages details: partiellement nuageux 1585 m
nuageux 2073 m
nuageux 2377 m
2014/09/17 13:00 LFMV 171300Z AUTO 14015KT 110V170 9999 SCT052/// BKN068/// BKN078/// ///CB 27/16 Q1010
 
LFBC - Cazaux/, France
Distance de la station: SO 336km
Mise à jour: 17/09/2014 15:00
partiellement nuageux
partiellement nuageux
 Wind from S
Vent: S 17 km/h
Température: 30°C
Heat Index: 30°C
Point de Rosée: 16°C
Humidité: 43%
Baromètre: 1004 hPa
Nuages: partiellement nuageux
Visibilité: 10 km
2014/09/17 13:00 LFBC 171300Z AUTO 18009KT 150V210 9999 NSC 30/16 Q1004
LFPC - Creil/, France
Distance de la station: NNE 278km
Mise à jour: 17/09/2014 15:00
nuageux
nuageux
 Wind from ENE
Vent: ENE 15 km/h
Température: 25°C
Point de Rosée: 17°C
Humidité: 61%
Baromètre: 1008 hPa
Nuages: nuageux
Visibilité: 10 km
Nuages details: partiellement nuageux 1250 m
partiellement nuageux 1433 m
nuageux 3962 m
2014/09/17 13:00 LFPC 171300Z AUTO 07008KT 040V100 9999 SCT041 SCT047 BKN130 25/17 Q1008
 
LFLB - Chambery/, France
Distance de la station: ESE 348km
Mise à jour: 17/09/2014 15:00
partiellement nuageux
partiellement nuageux
 Wind from variable
Vent: variable 4 km/h
Température: 25°C
Point de Rosée: 16°C
Humidité: 57%
Baromètre: 1010 hPa
Nuages: partiellement nuageux
Visibilité: 10 km
Nuages details: Quelques Nuages 1615 m
partiellement nuageux 4572 m
2014/09/17 13:00 LFLB 171300Z VRB02KT 9999 FEW053 SCT150 25/16 Q1010 NOSIG
LFOK - Chalons/, France
Distance de la station: NE 287km
Mise à jour: 17/09/2014 15:00
nuageux
nuageux
 Wind from SSE
Vent: SSE 19 km/h
Température: 27°C
Heat Index: 27°C
Point de Rosée: 15°C
Humidité: 48%
Baromètre: 1009 hPa
Nuages: nuageux
Visibilité: 10 km
Nuages details: Quelques Nuages 1494 m
nuageux 1829 m
nuageux 2316 m
2014/09/17 13:00 LFOK 171300Z AUTO 15010KT 110V170 9999 FEW049 BKN060 BKN076 27/15 Q1009
 
LFOC - Chateaudun/, France
Distance de la station: N 137km
Mise à jour: 17/09/2014 15:00
partiellement nuageux
partiellement nuageux
 Wind from ESE
Vent: ESE 9 km/h
Température: 24°C
Point de Rosée: 16°C
Humidité: 61%
Baromètre: 1007 hPa
Nuages: partiellement nuageux
Visibilité: 10 km
2014/09/17 13:00 LFOC 171300Z AUTO 11005KT 080V150 9999 NSC 24/16 Q1007
LFLX - Chateauroux/, France
Distance de la station: NE 4km
Mise à jour: 17/09/2014 15:00
clair
clair
 Wind from SE
Vent: SE 11 km/h
Température: 24°C
Point de Rosée: 16°C
Humidité: 61%
Baromètre: 1007 hPa
Récapitulatifs: clair
Visibilité: supérieure à 10 km
2014/09/17 13:00 LFLX 171300Z 13006KT 080V170 CAVOK 24/16 Q1007 NOSIG
 
LFPG - Charles De Gaulle/, France
Distance de la station: NNE 252km
Mise à jour: 17/09/2014 15:00
nuageux
nuageux
 Wind from ESE
Vent: ESE 11 km/h
Température: 24°C
Point de Rosée: 16°C
Humidité: 61%
Baromètre: 1008 hPa
Nuages: nuageux
Visibilité: 10 km
Nuages details: Quelques Nuages 1097 m
nuageux 7925 m
2014/09/17 13:00 LFPG 171300Z 11006KT 080V140 9999 FEW036 BKN260 24/16 Q1008 NOSIG
LFRC - Cherbourg/, France
Distance de la station: NO 390km
Mise à jour: 17/09/2014 15:00
nuageux
nuageux
 Wind from ENE
Vent: ENE 30 km/h
Température: 20°C
Point de Rosée: 16°C
Humidité: 78%
Baromètre: 1008 hPa
Nuages: nuageux
Visibilité: 6 km
Nuages details: nuageux 274 m
2014/09/17 13:00 LFRC 171300Z AUTO 07016KT 6000 BKN009 20/16 Q1008
 
LFLC - Clermont/, France
Distance de la station: SE 163km
Mise à jour: 17/09/2014 15:00
Light rain showers, nuageux
Light rain showers, nuageux
 Wind from variable
Vent: variable 4 km/h
Température: 24°C
Point de Rosée: 15°C
Humidité: 57%
Baromètre: 1008 hPa
Récapitulatifs: Light Rain Showers
Nuages: nuageux
Visibilité: 10 km
Nuages details: partiellement nuageux 1219 m
Quelques Nuages 1402 m
nuageux 2835 m
2014/09/17 13:00 LFLC 171300Z VRB02KT 9999 -SHRA SCT040 FEW046TCU BKN093 24/15 Q1008 NOSIG
LFBG - Cognac/, France
Distance de la station: SO 200km
Mise à jour: 17/09/2014 15:00
partiellement nuageux
partiellement nuageux
 Wind from S
Vent: S 13 km/h
Température: 29°C
Heat Index: 28°C
Point de Rosée: 14°C
Humidité: 40%
Baromètre: 1005 hPa
Nuages: partiellement nuageux
Visibilité: 10 km
2014/09/17 13:00 LFBG 171300Z AUTO 17007KT 110V210 9999 NSC 29/14 Q1005
 
LFBY - Dax/, France
Distance de la station: SSO 411km
Mise à jour: 17/09/2014 15:00
partiellement nuageux
partiellement nuageux
 Wind from SSO
Vent: SSO 17 km/h
Température: 31°C
Point de Rosée: 15°C
Humidité: 38%
Baromètre: 1004 hPa
Nuages: partiellement nuageux
Visibilité: 10 km
Nuages details: Quelques Nuages 1006 m
partiellement nuageux 7010 m
2014/09/17 13:00 LFBY 171300Z 20009KT 160V230 9999 FEW033 SCT230 31/15 Q1004
LFSD - Dijon/, France
Distance de la station: ENE 261km
Mise à jour: 17/09/2014 15:00
partiellement nuageux
partiellement nuageux
 Wind from S
Vent: S 15 km/h
Température: 27°C
Heat Index: 27°C
Point de Rosée: 15°C
Humidité: 48%
Baromètre: 1010 hPa
Nuages: partiellement nuageux
Visibilité: 10 km
2014/09/17 13:00 LFSD 171300Z AUTO 17008KT 110V200 9999 NSC 27/15 Q1010
 
LFRD - Dinard/, France
Distance de la station: NO 342km
Mise à jour: 17/09/2014 15:00
Quelques Nuages
Quelques Nuages
 Wind from ESE
Vent: ESE 15 km/h
Température: 24°C
Point de Rosée: 17°C
Humidité: 65%
Baromètre: 1005 hPa
Nuages: Quelques Nuages
Visibilité: 10 km
Nuages details: Quelques Nuages 975 m
2014/09/17 13:00 LFRD 171300Z AUTO 11008KT 9999 FEW032 24/17 Q1005
LFGJ - Dole/, France
Distance de la station: E 286km
Mise à jour: 17/09/2014 15:00
partiellement nuageux
partiellement nuageux
 Wind from variable
Vent: variable 0 km/h
Température: 26°C
Point de Rosée: 15°C
Humidité: 51%
Baromètre: 1010 hPa
Nuages: partiellement nuageux
Visibilité: 10 km
2014/09/17 13:00 LFGJ 171300Z AUTO /////KT 9999 NSC 26/15 Q1010
 
LFOE - Evreux/, France
Distance de la station: N 247km
Mise à jour: 17/09/2014 15:00
partiellement nuageux
partiellement nuageux
 Wind from E
Vent: E 15 km/h
Température: 24°C
Point de Rosée: 15°C
Humidité: 57%
Baromètre: 1008 hPa
Nuages: partiellement nuageux
Visibilité: 10 km
2014/09/17 13:00 LFOE 171300Z AUTO 09008KT 9999 NSC 24/15 Q1008
LFMT - Frejorgues/, France
Distance de la station: SSE 403km
Mise à jour: 17/09/2014 15:00
nuageux
nuageux
 Wind from SE
Vent: SE 35 km/h
Température: 23°C
Point de Rosée: 19°C
Humidité: 78%
Baromètre: 1010 hPa
Nuages: nuageux
Visibilité: 10 km
Nuages details: Quelques Nuages 671 m
nuageux 1402 m
2014/09/17 13:00 LFMT 171300Z 13019KT 9999 FEW022 BKN046 23/19 Q1010 RESHRA NOSIG
 
LFMI - Istres/, France
Distance de la station: SE 446km
Mise à jour: 17/09/2014 15:00
Orage
Orage
 Wind from SE
Vent: SE 28 km/h
Température: 26°C
Point de Rosée: 18°C
Humidité: 61%
Baromètre: 1010 hPa
Nuages: Orage
Visibilité: 10 km
2014/09/17 13:00 LFMI 171300Z AUTO 14015KT 9999 ///CB 26/18 Q1010
LFLS - Grenoble/, France
Distance de la station: ESE 323km
Mise à jour: 17/09/2014 15:00
partiellement nuageux
partiellement nuageux
 Wind from S
Vent: S 15 km/h
Température: 26°C
Point de Rosée: 13°C
Humidité: 45%
Baromètre: 1011 hPa
Nuages: partiellement nuageux
Visibilité: 10 km
2014/09/17 13:00 LFLS 171300Z AUTO 19008KT 160V240 9999 NSC 26/13 Q1011
 
LFBH - La Rochelle/, France
Distance de la station: OSO 229km
Mise à jour: 17/09/2014 15:00
partiellement nuageux
partiellement nuageux
 Wind from S
Vent: S 17 km/h
Température: 28°C
Heat Index: 28°C
Point de Rosée: 15°C
Humidité: 45%
Baromètre: 1004 hPa
Nuages: partiellement nuageux
Visibilité: 10 km
2014/09/17 13:00 LFBH 171300Z AUTO 18009KT 150V220 9999 NSC 28/15 Q1004
LFRI - La Roche Sur Yon/, France
Distance de la station: O 233km
Mise à jour: 17/09/2014 15:00
partiellement nuageux
partiellement nuageux
 Wind from S
Vent: S 20 km/h
Température: 28°C
Heat Index: 28°C
Point de Rosée: 15°C
Humidité: 45%
Baromètre: 1005 hPa
Nuages: partiellement nuageux
Visibilité: 10 km
2014/09/17 13:00 LFRI 171300Z AUTO 18011KT 140V200 9999 NSC 28/15 Q1005
 
LFOH - Le Havre/, France
Distance de la station: NNO 323km
Mise à jour: 17/09/2014 15:00
partiellement nuageux
partiellement nuageux
 Wind from E
Vent: E 19 km/h
Température: 25°C
Point de Rosée: 15°C
Humidité: 54%
Baromètre: 1007 hPa
Nuages: partiellement nuageux
Visibilité: 10 km
2014/09/17 13:00 LFOH 171300Z AUTO 10010KT 070V130 9999 NSC 25/15 Q1007
LFRM - Le Mans/, France
Distance de la station: NO 166km
Mise à jour: 17/09/2014 15:00
Quelques Nuages
Quelques Nuages
 Wind from ESE
Vent: ESE 11 km/h
Température: 26°C
Point de Rosée: 17°C
Humidité: 58%
Baromètre: 1006 hPa
Nuages: Quelques Nuages
Visibilité: 10 km
Nuages details: Quelques Nuages 1158 m
2014/09/17 13:00 LFRM 171300Z AUTO 12006KT 070V150 9999 FEW038 26/17 Q1006
 
LFRJ - Landivisiau/, France
Distance de la station: ONO 476km
Mise à jour: 17/09/2014 15:00
partiellement nuageux
partiellement nuageux
 Wind from ESE
Vent: ESE 24 km/h
Température: 24°C
Point de Rosée: 18°C
Humidité: 69%
Baromètre: 1004 hPa
Nuages: partiellement nuageux
Visibilité: 10 km
2014/09/17 13:00 LFRJ 171300Z AUTO 11013KT 080V140 9999 NSC 24/18 Q1004
LFRO - Lannion/, France
Distance de la station: ONO 441km
Mise à jour: 17/09/2014 15:00
partiellement nuageux
partiellement nuageux
 Wind from E
Vent: E 15 km/h
Température: 24°C
Point de Rosée: 17°C
Humidité: 65%
Baromètre: 1004 hPa
Nuages: partiellement nuageux
Visibilité: 10 km
2014/09/17 13:00 LFRO 171300Z AUTO 08008KT 050V130 9999 NSC 24/17 Q1004
 
LFRL - Lanveoc/, France
Distance de la station: ONO 485km
Mise à jour: 17/09/2014 15:00
nuageux
nuageux
 Wind from E
Vent: E 13 km/h
Température: 25°C
Point de Rosée: 18°C
Humidité: 65%
Baromètre: 1003 hPa
Nuages: nuageux
Visibilité: 10 km
Nuages details: nuageux 945 m
nuageux 3353 m
2014/09/17 13:00 LFRL 171300Z AUTO 10007KT 060V120 9999 BKN031 BKN110 25/18 Q1003
LFBL - Limoges/, France
Distance de la station: SSO 113km
Mise à jour: 17/09/2014 15:00
Quelques Nuages
Quelques Nuages
 Wind from SSE
Vent: SSE 15 km/h
Température: 25°C
Point de Rosée: 15°C
Humidité: 54%
Baromètre: 1007 hPa
Nuages: Quelques Nuages
Visibilité: 10 km
Nuages details: Quelques Nuages 1250 m
2014/09/17 13:00 LFBL 171300Z AUTO 15008KT 110V190 9999 FEW041 25/15 Q1007
 
LFQQ - Lille/, France
Distance de la station: NNE 430km
Mise à jour: 17/09/2014 15:00
clair
clair
 Wind from E
Vent: E 17 km/h
Température: 26°C
Point de Rosée: 14°C
Humidité: 48%
Baromètre: 1009 hPa
Récapitulatifs: clair
Visibilité: supérieure à 10 km
2014/09/17 13:00 LFQQ 171300Z 09009KT 060V130 CAVOK 26/14 Q1009 NOSIG
LFRH - Lorient/, France
Distance de la station: ONO 401km
Mise à jour: 17/09/2014 15:00
partiellement nuageux
partiellement nuageux
 Wind from SSE
Vent: SSE 26 km/h
Température: 24°C
Point de Rosée: 16°C
Humidité: 61%
Baromètre: 1004 hPa
Nuages: partiellement nuageux
Visibilité: 10 km
2014/09/17 13:00 LFRH 171300Z AUTO 15014KT 9999 NSC 24/16 Q1004
 
LFLY - Lyon/, France
Distance de la station: ESE 279km
Mise à jour: 17/09/2014 15:00
partiellement nuageux
partiellement nuageux
 Wind from S
Vent: S 26 km/h
Température: 27°C
Point de Rosée: 11°C
Humidité: 37%
Baromètre: 1009 hPa
Nuages: partiellement nuageux
Visibilité: 10 km
2014/09/17 13:00 LFLY 171300Z AUTO 18014KT 9999 NSC 27/11 Q1009
LFLL - Lyon/Satolas, France
Distance de la station: ESE 287km
Mise à jour: 17/09/2014 15:00
clair
clair
 Wind from S
Vent: S 15 km/h
Température: 27°C
Point de Rosée: 12°C
Humidité: 39%
Baromètre: 1010 hPa
Récapitulatifs: clair
Visibilité: supérieure à 10 km
2014/09/17 13:00 LFLL 171300Z 17008KT 140V220 CAVOK 27/12 Q1010 NOSIG
 
LFSX - Luxeuil/, France
Distance de la station: ENE 366km
Mise à jour: 17/09/2014 15:00
partiellement nuageux
partiellement nuageux
 Wind from SSE
Vent: SSE 11 km/h
Température: 25°C
Point de Rosée: 16°C
Humidité: 57%
Baromètre: 1011 hPa
Nuages: partiellement nuageux
Visibilité: 10 km
2014/09/17 13:00 LFSX 171300Z AUTO 15006KT 9999 NSC 25/16 Q1011
LFJR - Marce/, France
Distance de la station: NO 134km
Mise à jour: 17/09/2014 15:00
partiellement nuageux
partiellement nuageux
 Wind from ESE
Vent: ESE 13 km/h
Température: 24°C
Point de Rosée: 18°C
Humidité: 69%
Baromètre: 1006 hPa
Nuages: partiellement nuageux
Visibilité: 10 km
2014/09/17 13:00 LFJR 171300Z AUTO 12007KT 9999 NSC 24/18 Q1006
 
LFML - Marseille/, France
Distance de la station: SE 466km
Mise à jour: 17/09/2014 15:00
nuageux
nuageux
 Wind from ESE
Vent: ESE 33 km/h
Température: 28°C
Heat Index: 28°C
Point de Rosée: 16°C
Humidité: 48%
Baromètre: 1010 hPa
Nuages: nuageux
Visibilité: 10 km
Nuages details: Quelques Nuages 1311 m
partiellement nuageux 1402 m
nuageux 2012 m
2014/09/17 13:00 LFML 171300Z 12018KT 9999 FEW043CB SCT046 BKN066 28/16 Q1010 NOSIG
LFPM - Melun/, France
Distance de la station: NNE 213km
Mise à jour: 17/09/2014 15:00
partiellement nuageux
partiellement nuageux
 Wind from SSE
Vent: SSE 13 km/h
Température: 26°C
Point de Rosée: 16°C
Humidité: 54%
Baromètre: 1008 hPa
Nuages: partiellement nuageux
Visibilité: 10 km
2014/09/17 13:00 LFPM 171300Z AUTO 15007KT 110V180 9999 NSC 26/16 Q1008
 
LFJL - Metz-Nancy-Lorra/, France
Distance de la station: NE 416km
Mise à jour: 17/09/2014 15:00
partiellement nuageux
partiellement nuageux
 Wind from E
Vent: E 11 km/h
Température: 26°C
Point de Rosée: 15°C
Humidité: 51%
Baromètre: 1011 hPa
Nuages: partiellement nuageux
Visibilité: 10 km
2014/09/17 13:00 LFJL 171300Z AUTO 10006KT 060V160 9999 NSC 26/15 Q1011
LFBM - Mont-De-Marsan/, France
Distance de la station: SSO 365km
Mise à jour: 17/09/2014 15:00
partiellement nuageux
partiellement nuageux
 Wind from variable
Vent: variable 9 km/h
Température: 31°C
Point de Rosée: 14°C
Humidité: 35%
Baromètre: 1005 hPa
Nuages: partiellement nuageux
Visibilité: 10 km
2014/09/17 13:00 LFBM 171300Z AUTO VRB05KT 9999 NSC 31/14 Q1005
 
LFSO - Nancy/, France
Distance de la station: ENE 375km
Mise à jour: 17/09/2014 15:00
partiellement nuageux
partiellement nuageux
 Wind from E
Vent: E 11 km/h
Température: 25°C
Point de Rosée: 15°C
Humidité: 54%
Baromètre: 1011 hPa
Nuages: partiellement nuageux
Visibilité: 10 km
2014/09/17 13:00 LFSO 171300Z AUTO 09006KT 050V130 9999 NSC 25/15 Q1011
LFRS - Nantes/, France
Distance de la station: O 252km
Mise à jour: 17/09/2014 15:00
partiellement nuageux
partiellement nuageux
 Wind from SSE
Vent: SSE 11 km/h
Température: 29°C
Heat Index: 29°C
Point de Rosée: 16°C
Humidité: 45%
Baromètre: 1004 hPa
Nuages: partiellement nuageux
Visibilité: 10 km
Nuages details: Quelques Nuages 610 m
partiellement nuageux 7620 m
2014/09/17 13:00 LFRS 171300Z 15006KT 100V220 9999 FEW020 SCT250 29/16 Q1004 NOSIG
 
LFTW - Nimes/, France
Distance de la station: SE 402km
Mise à jour: 17/09/2014 15:00
Orage
Orage
 Wind from SSE
Vent: SSE 31 km/h
Température: 24°C
Point de Rosée: 17°C
Humidité: 65%
Baromètre: 1010 hPa
Nuages: Orage
Visibilité: 10 km
Nuages details: Quelques Nuages 1067 m
nuageux 1646 m
Couvert 1951 m
2014/09/17 13:00 LFTW 171300Z AUTO 16017KT 9999 FEW035/// BKN054/// OVC064/// ///CB 24/17 Q1010
LFMO - Orange/, France
Distance de la station: SE 387km
Mise à jour: 17/09/2014 15:00
Orage, Orage
Orage, Orage
 Wind from S
Vent: S 7 km/h
Température: 24°C
Point de Rosée: 17°C
Humidité: 65%
Baromètre: 1010 hPa
Récapitulatifs: Orage
Nuages: Orage
Visibilité: 10 km
Nuages details: nuageux 1494 m
Couvert 1890 m
2014/09/17 13:00 LFMO 171300Z AUTO 18004KT 140V220 9999 TS BKN049/// OVC062/// ///CB 24/17 Q1010
 
LFOJ - Orleans/, France
Distance de la station: N 128km
Mise à jour: 17/09/2014 15:00
partiellement nuageux
partiellement nuageux
 Wind from SE
Vent: SE 11 km/h
Température: 25°C
Point de Rosée: 16°C
Humidité: 57%
Baromètre: 1007 hPa
Nuages: partiellement nuageux
Visibilité: 10 km
2014/09/17 13:00 LFOJ 171300Z AUTO 13006KT 090V160 9999 NSC 25/16 Q1007
LFPB - Paris/, France
Distance de la station: NNE 246km
Mise à jour: 17/09/2014 15:00
partiellement nuageux
partiellement nuageux
 Wind from ESE
Vent: ESE 9 km/h
Température: 24°C
Point de Rosée: 17°C
Humidité: 65%
Baromètre: 1008 hPa
Nuages: partiellement nuageux
Visibilité: 10 km
2014/09/17 13:00 LFPB 171300Z AUTO 12005KT 070V160 9999 NSC 24/17 Q1008
 
LFPO - Paris/Orly/, France
Distance de la station: NNE 218km
Mise à jour: 17/09/2014 15:00
nuageux
nuageux
 Wind from E
Vent: E 11 km/h
Température: 25°C
Point de Rosée: 16°C
Humidité: 57%
Baromètre: 1008 hPa
Nuages: nuageux
Visibilité: 10 km
Nuages details: Quelques Nuages 1128 m
nuageux 4877 m
nuageux 7010 m
2014/09/17 13:00 LFPO 171300Z 10006KT 080V150 9999 FEW037 BKN160 BKN230 25/16 Q1008 NOSIG
LFMP - Perpignan/, France
Distance de la station: SSE 465km
Mise à jour: 17/09/2014 15:00
partiellement nuageux
partiellement nuageux
 Wind from S
Vent: S 24 km/h
Température: 30°C
Heat Index: 31°C
Point de Rosée: 18°C
Humidité: 49%
Baromètre: 1007 hPa
Nuages: partiellement nuageux
Visibilité: 10 km
Nuages details: Quelques Nuages 610 m
partiellement nuageux 8534 m
2014/09/17 13:00 LFMP 171300Z 17013KT 120V210 9999 FEW020 SCT280 30/18 Q1007 NOSIG
 
LFBI - Poitiers/, France
Distance de la station: OSO 108km
Mise à jour: 17/09/2014 15:00
partiellement nuageux
partiellement nuageux
 Wind from SSE
Vent: SSE 7 km/h
Température: 25°C
Point de Rosée: 16°C
Humidité: 57%
Baromètre: 1006 hPa
Nuages: partiellement nuageux
Visibilité: 10 km
2014/09/17 13:00 LFBI 171300Z AUTO 15004KT 100V190 9999 NSC 25/16 Q1006
LFRQ - Quimper/, France
Distance de la station: ONO 458km
Mise à jour: 17/09/2014 15:00
partiellement nuageux
partiellement nuageux
 Wind from SE
Vent: SE 22 km/h
Température: 24°C
Point de Rosée: 18°C
Humidité: 69%
Baromètre: 1003 hPa
Nuages: partiellement nuageux
Visibilité: 10 km
2014/09/17 13:00 LFRQ 171300Z AUTO 14012KT 110V180 9999 NSC 24/18 Q1003
 
LFRN - Rennes/, France
Distance de la station: ONO 291km
Mise à jour: 17/09/2014 15:00
Couvert
Couvert
 Wind from ESE
Vent: ESE 19 km/h
Température: 24°C
Point de Rosée: 18°C
Humidité: 69%
Baromètre: 1005 hPa
Nuages: Couvert
Visibilité: 10 km
Nuages details: Quelques Nuages 945 m
nuageux 3962 m
Couvert 5182 m
2014/09/17 13:00 LFRN 171300Z AUTO 11010KT 080V140 9999 FEW031 BKN130 OVC170 24/18 Q1005
LFCR - Rodez/, France
Distance de la station: SSE 277km
Mise à jour: 17/09/2014 15:00
partiellement nuageux
partiellement nuageux
 Wind from SE
Vent: SE 33 km/h
Température: 23°C
Point de Rosée: 15°C
Humidité: 61%
Baromètre: 1010 hPa
Nuages: partiellement nuageux
Visibilité: 10 km
Nuages details: partiellement nuageux 884 m
2014/09/17 13:00 LFCR 171300Z AUTO 14018KT 110V170 9999 SCT029 23/15 Q1010
 
LFYR - Romorantin/, France
Distance de la station: N 56km
Mise à jour: 17/09/2014 15:00
partiellement nuageux
partiellement nuageux
 Wind from ESE
Vent: ESE 11 km/h
Température: 25°C
Point de Rosée: 15°C
Humidité: 54%
Baromètre: 1007 hPa
Nuages: partiellement nuageux
Visibilité: 10 km
2014/09/17 13:00 LFYR 171300Z AUTO 11006KT 9999 NSC 25/15 Q1007
LFOP - Rouen/, France
Distance de la station: N 286km
Mise à jour: 17/09/2014 15:00
partiellement nuageux
partiellement nuageux
 Wind from E
Vent: E 19 km/h
Température: 24°C
Point de Rosée: 16°C
Humidité: 61%
Baromètre: 1008 hPa
Nuages: partiellement nuageux
Visibilité: 10 km
2014/09/17 13:00 LFOP 171300Z AUTO 10010KT 070V130 9999 NSC 24/16 Q1008
 
LFMY - Salon/, France
Distance de la station: SE 446km
Mise à jour: 17/09/2014 15:00
faible pluie, Orage
faible pluie, Orage
 Wind from E
Vent: E 15 km/h
Température: 23°C
Point de Rosée: 19°C
Humidité: 78%
Baromètre: 1010 hPa
Récapitulatifs: faible pluie
Nuages: Orage
Visibilité: 10 km
Nuages details: Quelques Nuages 1219 m
nuageux 1585 m
Couvert 1951 m
2014/09/17 13:00 LFMY 171300Z AUTO 10008KT 9999 -RA FEW040/// BKN052/// OVC064/// ///CB 23/19 Q1010
LFST - Strasbourg/, France
Distance de la station: ENE 483km
Mise à jour: 17/09/2014 15:00
partiellement nuageux
partiellement nuageux
 Wind from NNE
Vent: NNE 7 km/h
Température: 24°C
Point de Rosée: 16°C
Humidité: 61%
Baromètre: 1011 hPa
Nuages: partiellement nuageux
Visibilité: 10 km
2014/09/17 13:00 LFST 171300Z AUTO 02004KT 290V090 9999 NSC 24/16 Q1011
 
LFRT - Saint-Brieuc/, France
Distance de la station: ONO 388km
Mise à jour: 17/09/2014 15:00
partiellement nuageux
partiellement nuageux
 Wind from ESE
Vent: ESE 19 km/h
Température: 24°C
Point de Rosée: 17°C
Humidité: 65%
Baromètre: 1005 hPa
Nuages: partiellement nuageux
Visibilité: 10 km
2014/09/17 13:00 LFRT 171300Z AUTO 11010KT 080V150 9999 NSC 24/17 Q1005
LFSI - St. Dizier/, France
Distance de la station: NE 313km
Mise à jour: 17/09/2014 15:00
partiellement nuageux
partiellement nuageux
 Wind from SSE
Vent: SSE 20 km/h
Température: 27°C
Heat Index: 27°C
Point de Rosée: 15°C
Humidité: 48%
Baromètre: 1009 hPa
Nuages: partiellement nuageux
Visibilité: 10 km
2014/09/17 13:00 LFSI 171300Z AUTO 15011KT 9999 NSC 27/15 Q1009
 
LFMH - St Etienne/, France
Distance de la station: SE 247km
Mise à jour: 17/09/2014 15:00
partiellement nuageux
partiellement nuageux
 Wind from S
Vent: S 30 km/h
Température: 26°C
Point de Rosée: 12°C
Humidité: 42%
Baromètre: 1010 hPa
Nuages: partiellement nuageux
Visibilité: 10 km
Nuages details: partiellement nuageux 1402 m
2014/09/17 13:00 LFMH 171300Z 19016KT 140V220 9999 SCT046 26/12 Q1010 NOSIG
LFRG - St Gatien/, France
Distance de la station: NNO 305km
Mise à jour: 17/09/2014 15:00
partiellement nuageux
partiellement nuageux
 Wind from variable
Vent: variable 11 km/h
Température: 25°C
Point de Rosée: 17°C
Humidité: 61%
Baromètre: 1007 hPa
Nuages: partiellement nuageux
Visibilité: 10 km
2014/09/17 13:00 LFRG 171300Z AUTO VRB06KT 9999 NSC 25/17 Q1007
 
LFRZ - St. Nazaire/, France
Distance de la station: ONO 297km
Mise à jour: 17/09/2014 15:00
partiellement nuageux
partiellement nuageux
 Wind from SO
Vent: SO 9 km/h
Température: 27°C
Heat Index: 28°C
Point de Rosée: 18°C
Humidité: 58%
Baromètre: 1004 hPa
Nuages: partiellement nuageux
Visibilité: 10 km
2014/09/17 13:00 LFRZ 171300Z AUTO 23005KT 200V260 9999 NSC 27/18 Q1004
LFLN - Saint Yan/, France
Distance de la station: ESE 184km
Mise à jour: 17/09/2014 15:00
partiellement nuageux
partiellement nuageux
 Wind from S
Vent: S 24 km/h
Température: 27°C
Point de Rosée: 12°C
Humidité: 39%
Baromètre: 1008 hPa
Nuages: partiellement nuageux
Visibilité: 10 km
2014/09/17 13:00 LFLN 171300Z AUTO 17013KT 9999 NSC 27/12 Q1008
 
LFBT - Tarbes/, France
Distance de la station: SSO 427km
Mise à jour: 17/09/2014 15:00
partiellement nuageux
partiellement nuageux
 Wind from variable
Vent: variable 4 km/h
Température: 28°C
Heat Index: 27°C
Point de Rosée: 13°C
Humidité: 40%
Baromètre: 1006 hPa
Nuages: partiellement nuageux
Visibilité: 10 km
2014/09/17 13:00 LFBT 171300Z AUTO VRB02KT 9999 NSC 28/13 Q1006
LFSL - Toul/, France
Distance de la station: NE 356km
Mise à jour: 17/09/2014 15:00
Quelques Nuages
Quelques Nuages
 Wind from ESE
Vent: ESE 13 km/h
Température: 27°C
Heat Index: 27°C
Point de Rosée: 14°C
Humidité: 45%
Baromètre: 1007 hPa
Nuages: Quelques Nuages
Visibilité: 10 km
Nuages details: Quelques Nuages 1494 m
2014/09/17 13:00 LFSL 171300Z AUTO 12007KT 090V160 9999 FEW049 27/14 Q1007
 
LFBO - Toulouse/, France
Distance de la station: S 357km
Mise à jour: 17/09/2014 15:00
partiellement nuageux
partiellement nuageux
 Wind from ESE
Vent: ESE 30 km/h
Température: 28°C
Heat Index: 28°C
Point de Rosée: 17°C
Humidité: 51%
Baromètre: 1006 hPa
Nuages: partiellement nuageux
Visibilité: 10 km
2014/09/17 13:00 LFBO 171300Z AUTO 12016KT 090V150 9999 NSC 28/17 Q1006
LFOT - Tours/, France
Distance de la station: NO 100km
Mise à jour: 17/09/2014 15:00
partiellement nuageux
partiellement nuageux
 Wind from SSE
Vent: SSE 13 km/h
Température: 26°C
Point de Rosée: 15°C
Humidité: 51%
Baromètre: 1006 hPa
Nuages: partiellement nuageux
Visibilité: 10 km
2014/09/17 13:00 LFOT 171300Z AUTO 15007KT 100V180 9999 NSC 26/15 Q1006
 
LFPN - Toussus Le Noble/, France
Distance de la station: N 217km
Mise à jour: 17/09/2014 15:00
partiellement nuageux
partiellement nuageux
 Wind from ESE
Vent: ESE 13 km/h
Température: 24°C
Point de Rosée: 16°C
Humidité: 61%
Baromètre: 1008 hPa
Nuages: partiellement nuageux
Visibilité: 10 km
2014/09/17 13:00 LFPN 171300Z AUTO 11007KT 9999 NSC 24/16 Q1008
LFPV - Villacoublay/, France
Distance de la station: N 220km
Mise à jour: 17/09/2014 15:00
nuageux
nuageux
 Wind from ESE
Vent: ESE 9 km/h
Température: 24°C
Point de Rosée: 16°C
Humidité: 61%
Baromètre: 1008 hPa
Nuages: nuageux
Visibilité: 10 km
Nuages details: Quelques Nuages 975 m
partiellement nuageux 4267 m
nuageux 4877 m
2014/09/17 13:00 LFPV 171300Z AUTO 12005KT 050V170 9999 FEW032 SCT140 BKN160 24/16 Q1008